createdAt,value
2023-03-24T00:01:29.830Z,0.40
2023-03-24T00:03:59.240Z,0.50
2023-03-24T00:06:27.986Z,0.40
2023-03-24T00:08:56.612Z,0.50
2023-03-24T00:11:26.427Z,0.60
2023-03-24T00:13:58.535Z,0.40
2023-03-24T00:16:28.625Z,0.52
2023-03-24T00:18:57.922Z,0.37
2023-03-24T00:21:27.520Z,0.77
2023-03-24T00:23:58.406Z,0.63
2023-03-24T00:26:27.158Z,0.70
2023-03-24T00:28:57.203Z,0.53
2023-03-24T00:31:27.326Z,0.43
2023-03-24T00:33:55.936Z,0.25
2023-03-24T00:36:26.832Z,0.50
2023-03-24T00:38:55.942Z,0.60
2023-03-24T00:41:26.812Z,0.57
2023-03-24T00:43:58.441Z,0.63
2023-03-24T00:46:29.100Z,0.30
2023-03-24T00:49:02.633Z,0.20
2023-03-24T00:51:35.229Z,0.50
2023-03-24T00:54:03.958Z,0.50
2023-03-24T00:56:37.871Z,0.27
2023-03-24T00:59:10.471Z,0.43
2023-03-24T01:01:41.530Z,0.40
2023-03-24T01:04:11.242Z,0.40
2023-03-24T01:06:41.175Z,0.40
2023-03-24T01:09:10.703Z,0.32
2023-03-24T01:11:41.821Z,0.30
2023-03-24T01:14:11.152Z,0.50
2023-03-24T01:16:42.112Z,0.40
2023-03-24T01:19:11.094Z,0.30
2023-03-24T01:21:42.272Z,0.70
2023-03-24T01:24:13.636Z,0.65
2023-03-24T01:26:42.280Z,0.60
2023-03-24T01:29:10.954Z,0.40
2023-03-24T01:31:41.019Z,0.60
2023-03-24T01:34:09.759Z,0.65
2023-03-24T01:36:38.348Z,0.60
2023-03-24T01:39:06.960Z,0.40
2023-03-24T01:41:38.804Z,0.50
2023-03-24T01:44:31.139Z,0.60
2023-03-24T01:47:04.226Z,0.43
2023-03-24T01:49:37.596Z,0.60
2023-03-24T01:52:11.437Z,0.60
2023-03-24T01:54:45.348Z,0.60
2023-03-24T01:57:18.651Z,0.60
2023-03-24T01:59:52.994Z,0.55
2023-03-24T02:02:23.163Z,0.70
2023-03-24T02:04:56.064Z,0.50
2023-03-24T02:07:33.102Z,0.53
2023-03-24T02:10:02.863Z,0.70
2023-03-24T02:12:32.504Z,0.45
2023-03-24T02:15:02.018Z,0.60
2023-03-24T02:17:54.696Z,0.68
2023-03-24T02:20:55.793Z,0.60
2023-03-24T02:23:49.695Z,0.60
2023-03-24T02:26:49.476Z,0.68
2023-03-24T02:29:54.925Z,0.35
2023-03-24T02:32:52.731Z,0.70
2023-03-24T02:35:43.056Z,0.40
2023-03-24T02:38:56.369Z,0.40
2023-03-24T02:41:30.308Z,0.45
2023-03-24T02:44:06.601Z,0.88
2023-03-24T02:46:43.168Z,0.80
2023-03-24T02:49:23.861Z,0.50
2023-03-24T02:51:59.273Z,0.68
2023-03-24T02:54:36.635Z,0.67
2023-03-24T02:57:10.884Z,0.52
2023-03-24T02:59:45.455Z,0.80
2023-03-24T03:02:18.939Z,0.70
2023-03-24T03:04:52.399Z,0.70
2023-03-24T03:07:25.180Z,0.60
2023-03-24T03:10:00.214Z,0.73
2023-03-24T03:12:34.637Z,0.90
2023-03-24T03:15:07.959Z,0.60
2023-03-24T03:17:42.528Z,0.80
2023-03-24T03:20:17.646Z,0.60
2023-03-24T03:22:51.988Z,0.50
2023-03-24T03:25:25.545Z,0.80
2023-03-24T03:27:59.023Z,0.80
2023-03-24T03:30:33.823Z,0.70
2023-03-24T03:33:05.596Z,0.68
2023-03-24T03:35:39.341Z,0.50
2023-03-24T03:38:15.717Z,0.63
2023-03-24T03:40:51.690Z,0.22
2023-03-24T03:43:21.818Z,0.52
2023-03-24T03:45:50.653Z,0.60
2023-03-24T03:48:19.950Z,0.50
2023-03-24T03:50:49.733Z,0.50
2023-03-24T03:53:26.920Z,0.70
2023-03-24T03:55:57.026Z,0.75
2023-03-24T03:58:28.917Z,0.90
2023-03-24T04:00:57.704Z,0.90
2023-03-24T04:03:44.939Z,0.80
2023-03-24T04:06:27.086Z,0.70
2023-03-24T04:09:04.042Z,0.73
2023-03-24T04:11:47.851Z,0.60
2023-03-24T04:14:44.683Z,0.67
2023-03-24T04:17:24.580Z,0.80
2023-03-24T04:20:05.679Z,0.77
2023-03-24T04:22:50.818Z,0.52
2023-03-24T04:25:29.718Z,0.63
2023-03-24T04:28:05.399Z,0.70
2023-03-24T04:30:43.997Z,0.85
2023-03-24T04:33:18.466Z,0.80
2023-03-24T04:35:52.432Z,0.70
2023-03-24T04:38:25.772Z,0.70
2023-03-24T04:40:57.524Z,0.85
2023-03-24T04:43:36.580Z,0.50
2023-03-24T04:46:08.918Z,0.80
2023-03-24T04:48:37.872Z,0.88
2023-03-24T04:51:07.520Z,0.70
2023-03-24T04:53:36.056Z,0.70
2023-03-24T04:56:27.474Z,0.90
2023-03-24T04:58:56.630Z,0.70
2023-03-24T05:01:30.477Z,0.82
2023-03-24T05:03:59.736Z,0.90
2023-03-24T05:06:28.448Z,0.82
2023-03-24T05:08:59.069Z,1.70
2023-03-24T05:11:27.962Z,0.90
2023-03-24T05:13:56.883Z,0.65
2023-03-24T05:16:26.916Z,1.15
2023-03-24T05:18:55.612Z,0.80
2023-03-24T05:21:24.196Z,0.70
2023-03-24T05:23:52.741Z,0.98
2023-03-24T05:26:21.396Z,0.70
2023-03-24T05:28:49.978Z,0.80
2023-03-24T05:31:18.627Z,0.85
2023-03-24T05:33:48.631Z,0.95
2023-03-24T05:36:17.320Z,0.43
2023-03-24T05:38:45.881Z,0.80
2023-03-24T05:41:14.446Z,0.77
2023-03-24T05:43:43.003Z,0.50
2023-03-24T05:46:11.691Z,0.20
2023-03-24T05:48:40.309Z,0.90
2023-03-24T05:51:10.707Z,0.70
2023-03-24T05:53:39.255Z,0.20
2023-03-24T05:56:11.917Z,0.57
2023-03-24T05:58:40.522Z,0.47
2023-03-24T06:01:10.733Z,0.20
2023-03-24T06:03:40.592Z,0.22
2023-03-24T06:06:14.882Z,0.20
2023-03-24T06:08:45.181Z,0.43
2023-03-24T06:11:14.073Z,1.00
2023-03-24T06:13:42.689Z,0.60
2023-03-24T06:16:12.004Z,0.40
2023-03-24T06:18:42.839Z,0.65
2023-03-24T06:21:12.785Z,0.60
2023-03-24T06:23:41.588Z,0.30
2023-03-24T06:26:12.598Z,1.90
2023-03-24T06:28:42.305Z,1.48
2023-03-24T06:31:15.158Z,1.17
2023-03-24T06:33:43.953Z,0.52
2023-03-24T06:36:14.814Z,0.98
2023-03-24T06:38:44.026Z,1.35
2023-03-24T06:41:12.898Z,0.95
2023-03-24T06:43:41.432Z,0.52
2023-03-24T06:46:10.981Z,1.00
2023-03-24T06:48:39.809Z,0.30
2023-03-24T06:51:08.963Z,1.30
2023-03-24T06:53:41.284Z,1.13
2023-03-24T06:56:10.174Z,0.80
2023-03-24T06:58:38.729Z,0.60
2023-03-24T07:01:07.455Z,0.37
2023-03-24T07:03:36.811Z,1.25
2023-03-24T07:06:07.546Z,0.55
2023-03-24T07:08:38.600Z,0.90
2023-03-24T07:11:10.243Z,0.60
2023-03-24T07:13:38.973Z,0.50
2023-03-24T07:16:08.281Z,1.42
2023-03-24T07:18:37.091Z,0.73
2023-03-24T07:21:05.949Z,1.60
2023-03-24T07:23:34.842Z,1.10
2023-03-24T07:26:03.413Z,1.00
2023-03-24T07:28:33.381Z,1.35
2023-03-24T07:31:04.713Z,0.65
2023-03-24T07:33:33.512Z,1.00
2023-03-24T07:36:02.119Z,0.50
2023-03-24T07:38:31.058Z,0.55
2023-03-24T07:41:00.388Z,1.30
2023-03-24T07:43:29.051Z,1.10
2023-03-24T07:45:59.025Z,0.83
2023-03-24T07:48:27.613Z,1.07
2023-03-24T07:50:56.400Z,1.15
2023-03-24T07:53:25.018Z,1.40
2023-03-24T07:55:53.582Z,0.40
2023-03-24T07:58:22.388Z,1.10
2023-03-24T08:00:51.166Z,0.80
2023-03-24T08:03:28.107Z,0.90
2023-03-24T08:05:57.148Z,0.77
2023-03-24T08:08:25.768Z,1.25
2023-03-24T08:10:54.042Z,0.82
2023-03-24T08:13:22.575Z,0.70
2023-03-24T08:15:51.418Z,1.10
2023-03-24T08:18:21.974Z,0.90
2023-03-24T08:20:51.535Z,1.20
2023-03-24T08:23:20.119Z,1.02
2023-03-24T08:25:50.261Z,1.13
2023-03-24T08:28:18.983Z,1.50
2023-03-24T08:30:48.071Z,0.82
2023-03-24T08:33:17.812Z,1.10
2023-03-24T08:35:47.785Z,1.35
2023-03-24T08:38:18.770Z,1.27
2023-03-24T08:40:49.051Z,1.00
2023-03-24T08:43:17.636Z,1.00
2023-03-24T08:45:46.206Z,0.88
2023-03-24T08:48:14.624Z,1.30
2023-03-24T08:50:43.681Z,1.20
2023-03-24T08:53:13.667Z,0.70
2023-03-24T08:55:43.686Z,1.27
2023-03-24T08:58:15.732Z,1.38
2023-03-24T09:00:45.623Z,1.00
2023-03-24T09:03:18.526Z,1.30
2023-03-24T09:05:47.969Z,1.20
2023-03-24T09:08:19.959Z,1.10
2023-03-24T09:10:48.567Z,1.40
2023-03-24T09:13:17.239Z,1.20
2023-03-24T09:15:48.949Z,1.30
2023-03-24T09:18:17.911Z,1.00
2023-03-24T09:20:47.339Z,1.20
2023-03-24T09:23:18.089Z,1.63
2023-03-24T09:25:47.182Z,0.82
2023-03-24T09:28:16.289Z,0.98
2023-03-24T09:30:45.214Z,1.00
2023-03-24T09:33:14.229Z,1.45
2023-03-24T09:35:43.084Z,1.25
2023-03-24T09:38:12.403Z,1.23
2023-03-24T09:40:44.062Z,1.30
2023-03-24T09:43:23.840Z,1.42
2023-03-24T09:45:54.995Z,1.33
2023-03-24T09:48:32.504Z,1.20
2023-03-24T09:51:05.965Z,1.40
2023-03-24T09:53:43.801Z,1.85
2023-03-24T09:56:18.480Z,1.30
2023-03-24T09:58:54.553Z,1.40
2023-03-24T10:01:26.457Z,1.40
2023-03-24T10:03:59.278Z,1.10
2023-03-24T10:06:30.781Z,1.13
2023-03-24T10:09:18.470Z,1.33
2023-03-24T10:11:56.265Z,1.50
2023-03-24T10:14:40.523Z,1.48
2023-03-24T10:17:19.559Z,1.35
2023-03-24T10:19:59.904Z,0.60
2023-03-24T10:22:35.591Z,1.40
2023-03-24T10:25:16.678Z,1.33
2023-03-24T10:27:52.408Z,1.20
2023-03-24T10:30:24.973Z,1.15
2023-03-24T10:32:54.776Z,1.57
2023-03-24T10:35:28.661Z,1.10
2023-03-24T10:38:00.924Z,1.02
2023-03-24T10:40:33.869Z,1.27
2023-03-24T10:43:09.386Z,1.10
2023-03-24T10:45:40.944Z,1.02
2023-03-24T10:48:10.400Z,1.00
2023-03-24T10:50:44.516Z,1.15
2023-03-24T10:53:20.652Z,1.27
2023-03-24T10:55:50.722Z,1.23
2023-03-24T10:58:30.307Z,1.30
2023-03-24T11:01:01.491Z,1.30
2023-03-24T11:03:32.885Z,1.20
2023-03-24T11:06:03.967Z,0.73
2023-03-24T11:08:37.900Z,1.00
2023-03-24T11:11:29.690Z,1.05
2023-03-24T11:14:02.179Z,0.80
2023-03-24T11:16:33.412Z,1.33
2023-03-24T11:19:06.815Z,1.35
2023-03-24T11:21:38.154Z,1.00
2023-03-24T11:24:13.491Z,1.20
2023-03-24T11:26:46.843Z,1.15
2023-03-24T11:29:19.887Z,1.00
2023-03-24T11:31:55.189Z,1.30
2023-03-24T11:34:26.324Z,1.35
2023-03-24T11:36:57.335Z,1.80
2023-03-24T11:39:26.922Z,1.50
2023-03-24T11:42:15.459Z,1.08
2023-03-24T11:44:49.915Z,1.02
2023-03-24T11:47:25.787Z,1.30
2023-03-24T11:50:06.825Z,0.87
2023-03-24T11:52:41.511Z,1.13
2023-03-24T11:55:17.970Z,0.95
2023-03-24T11:57:56.471Z,0.93
2023-03-24T12:00:34.827Z,1.05
2023-03-24T12:03:49.855Z,1.00
2023-03-24T12:06:41.658Z,1.10
2023-03-24T12:09:22.989Z,1.10
2023-03-24T12:12:22.481Z,0.82
2023-03-24T12:15:27.144Z,1.20
2023-03-24T12:18:11.623Z,1.08
2023-03-24T12:20:46.151Z,1.05
2023-03-24T12:23:19.728Z,1.15
2023-03-24T12:26:06.376Z,0.90
2023-03-24T12:29:30.725Z,0.90
2023-03-24T12:32:27.566Z,0.90
2023-03-24T12:35:41.349Z,0.95
2023-03-24T12:38:34.375Z,0.93
2023-03-24T12:41:18.090Z,1.20
2023-03-24T12:44:03.571Z,1.13
2023-03-24T12:46:47.760Z,1.00
2023-03-24T12:49:43.698Z,1.20
2023-03-24T12:52:43.866Z,1.10
2023-03-24T12:55:18.013Z,0.95
2023-03-24T12:57:52.990Z,1.20
2023-03-24T13:00:27.205Z,1.20
2023-03-24T13:02:59.176Z,1.23
2023-03-24T13:05:33.124Z,1.70
2023-03-24T13:08:06.795Z,1.10
2023-03-24T13:10:40.534Z,1.00
2023-03-24T13:13:16.415Z,0.90
2023-03-24T13:15:49.138Z,1.20
2023-03-24T13:18:32.807Z,1.30
2023-03-24T13:21:08.951Z,0.80
2023-03-24T13:23:47.971Z,0.60
2023-03-24T13:26:27.404Z,1.07
2023-03-24T13:29:24.034Z,0.50
2023-03-24T13:31:57.721Z,1.13
2023-03-24T13:34:31.261Z,1.10
2023-03-24T13:37:04.277Z,0.87
2023-03-24T13:39:37.388Z,1.30
2023-03-24T13:42:06.542Z,0.90
2023-03-24T13:44:40.910Z,0.90
2023-03-24T13:47:15.538Z,1.50
2023-03-24T13:50:01.363Z,1.30
2023-03-24T13:52:35.749Z,1.10
2023-03-24T13:55:16.198Z,1.10
2023-03-24T13:57:55.591Z,1.47
2023-03-24T14:00:25.517Z,1.42
2023-03-24T14:02:55.519Z,1.42
2023-03-24T14:05:59.287Z,1.50
2023-03-24T14:08:44.821Z,1.10
2023-03-24T14:12:08.765Z,1.42
2023-03-24T14:14:57.882Z,0.52
2023-03-24T14:17:27.930Z,0.80
2023-03-24T14:20:13.704Z,0.80
2023-03-24T14:22:48.400Z,0.60
2023-03-24T14:25:27.367Z,0.47
2023-03-24T14:28:08.754Z,0.40
2023-03-24T14:30:40.810Z,0.40
2023-03-24T14:33:27.022Z,0.30
2023-03-24T14:36:04.997Z,0.40
2023-03-24T14:38:38.812Z,0.10
2023-03-24T14:41:13.828Z,0.70
2023-03-24T14:44:00.802Z,0.80
2023-03-24T14:46:40.360Z,0.50
2023-03-24T14:49:24.313Z,1.00
2023-03-24T14:52:01.710Z,1.02
2023-03-24T14:54:38.132Z,0.80
2023-03-24T14:57:08.922Z,0.67
2023-03-24T14:59:46.961Z,0.30
2023-03-24T15:02:29.033Z,0.47
2023-03-24T15:05:24.953Z,0.10
2023-03-24T15:08:15.794Z,0.80
2023-03-24T15:10:50.750Z,0.30
2023-03-24T15:13:36.880Z,0.60
2023-03-24T15:16:09.076Z,0.10
2023-03-24T15:18:57.654Z,0.22
2023-03-24T15:21:35.000Z,0.68
2023-03-24T15:24:05.437Z,0.38
2023-03-24T15:26:33.990Z,0.60
2023-03-24T15:29:06.703Z,0.20
2023-03-24T15:31:35.399Z,0.10
2023-03-24T15:34:06.394Z,0.08
2023-03-24T15:36:44.999Z,0.10
2023-03-24T15:39:22.018Z,0.20
2023-03-24T15:41:53.819Z,0.10
2023-03-24T15:44:26.562Z,0.40
2023-03-24T15:46:58.745Z,0.50
2023-03-24T15:49:31.806Z,1.27
2023-03-24T15:52:05.319Z,0.60
2023-03-24T15:54:41.828Z,1.88
2023-03-24T15:57:19.215Z,1.20
2023-03-24T15:59:50.567Z,0.95
2023-03-24T16:02:31.328Z,0.55
2023-03-24T16:07:37.761Z,0.30
2023-03-24T16:10:08.778Z,0.70
2023-03-24T16:12:38.248Z,0.40
2023-03-24T16:15:08.193Z,0.25
2023-03-24T16:17:36.517Z,0.20
2023-03-24T16:20:08.999Z,0.05
2023-03-24T16:22:38.657Z,0.20
2023-03-24T16:25:08.670Z,0.20
2023-03-24T16:27:37.007Z,0.00
2023-03-24T16:30:21.260Z,0.10
2023-03-24T16:32:49.704Z,0.45
2023-03-24T16:35:18.515Z,0.40
2023-03-24T16:37:48.282Z,0.55
2023-03-24T16:40:23.396Z,0.10
2023-03-24T16:42:51.682Z,0.35
2023-03-24T16:45:20.154Z,0.40
2023-03-24T16:47:48.472Z,0.40
2023-03-24T16:50:31.301Z,0.10
2023-03-24T16:53:01.654Z,0.30
2023-03-24T16:55:30.442Z,0.22
2023-03-24T16:57:59.014Z,0.30
2023-03-24T17:00:30.000Z,0.20
2023-03-24T17:03:00.369Z,0.10
2023-03-24T17:05:32.240Z,0.20
2023-03-24T17:08:02.327Z,0.38
2023-03-24T17:10:31.391Z,0.30
2023-03-24T17:12:59.880Z,0.20
2023-03-24T17:15:31.652Z,0.45
2023-03-24T17:18:00.935Z,0.40
2023-03-24T17:20:29.733Z,0.22
2023-03-24T17:22:58.598Z,0.30
2023-03-24T17:25:29.334Z,0.20
2023-03-24T17:27:58.239Z,0.20
2023-03-24T17:30:29.280Z,0.20
2023-03-24T17:32:58.334Z,0.30
2023-03-24T17:35:27.283Z,0.20
2023-03-24T17:37:55.844Z,0.38
2023-03-24T17:40:24.431Z,0.30
2023-03-24T17:42:54.117Z,0.10
2023-03-24T17:45:22.654Z,0.70
2023-03-24T17:47:51.243Z,0.17
2023-03-24T17:50:19.693Z,0.20
2023-03-24T17:52:49.230Z,0.20
2023-03-24T17:55:19.229Z,0.20
2023-03-24T17:57:47.597Z,0.30
2023-03-24T18:00:17.950Z,0.20
2023-03-24T18:02:47.140Z,0.20
2023-03-24T18:05:16.034Z,0.20
2023-03-24T18:07:44.528Z,0.13
2023-03-24T18:10:13.891Z,0.20
2023-03-24T18:12:42.367Z,0.43
2023-03-24T18:15:11.950Z,0.30
2023-03-24T18:17:41.990Z,0.40
2023-03-24T18:20:12.263Z,0.43
2023-03-24T18:22:41.208Z,0.35
2023-03-24T18:25:13.875Z,0.65
2023-03-24T18:27:42.489Z,0.40
2023-03-24T18:30:14.838Z,0.40
2023-03-24T18:32:44.661Z,0.32
2023-03-24T18:35:17.152Z,0.50
2023-03-24T18:37:46.124Z,0.32
2023-03-24T18:40:15.827Z,0.40
2023-03-24T18:42:44.211Z,0.28
2023-03-24T18:45:17.512Z,0.40
2023-03-24T18:47:48.142Z,0.47
2023-03-24T18:50:16.848Z,0.60
2023-03-24T18:52:46.010Z,0.60
2023-03-24T18:55:15.828Z,0.90
2023-03-24T18:57:44.127Z,0.52
2023-03-24T19:00:14.503Z,0.28
2023-03-24T19:02:43.558Z,0.40
2023-03-24T19:05:15.377Z,0.50
2023-03-24T19:07:45.755Z,0.30
2023-03-24T19:10:14.451Z,0.32
2023-03-24T19:12:43.006Z,0.40
2023-03-24T19:15:13.667Z,0.60
2023-03-24T19:17:42.070Z,0.60
2023-03-24T19:20:13.920Z,0.33
2023-03-24T19:22:42.265Z,0.50
2023-03-24T19:25:10.867Z,0.50
2023-03-24T19:27:39.173Z,0.73
2023-03-24T19:30:09.417Z,0.50
2023-03-24T19:32:37.766Z,0.57
2023-03-24T19:35:08.289Z,0.52
2023-03-24T19:37:38.119Z,0.65
2023-03-24T19:40:11.644Z,0.50
2023-03-24T19:42:41.988Z,0.45
2023-03-24T19:45:12.718Z,0.20
2023-03-24T19:47:41.056Z,0.50
2023-03-24T19:50:11.272Z,0.13
2023-03-24T19:52:43.092Z,0.70
2023-03-24T19:55:12.985Z,0.60
2023-03-24T19:57:41.686Z,0.70
2023-03-24T20:00:14.330Z,0.60
2023-03-24T20:02:43.373Z,0.50
2023-03-24T20:05:12.126Z,0.50
2023-03-24T20:07:42.051Z,0.30
2023-03-24T20:10:11.532Z,0.57
2023-03-24T20:12:40.320Z,0.40
2023-03-24T20:15:09.754Z,0.45
2023-03-24T20:17:39.546Z,0.23
2023-03-24T20:20:10.373Z,0.50
2023-03-24T20:22:42.060Z,0.40
2023-03-24T20:25:13.358Z,0.20
2023-03-24T20:27:42.044Z,0.30
2023-03-24T20:30:12.658Z,0.35
2023-03-24T20:32:40.969Z,0.10
2023-03-24T20:35:10.222Z,0.30
2023-03-24T20:37:38.491Z,0.37
2023-03-24T20:40:10.406Z,0.10
2023-03-24T20:42:40.375Z,0.20
2023-03-24T20:45:11.834Z,0.10
2023-03-24T20:47:40.117Z,0.25
2023-03-24T20:50:10.552Z,0.35
2023-03-24T20:52:38.984Z,0.20
2023-03-24T20:55:10.015Z,0.20
2023-03-24T20:57:39.690Z,0.60
2023-03-24T21:00:13.774Z,0.40
2023-03-24T21:02:43.505Z,0.25
2023-03-24T21:05:12.252Z,0.40
2023-03-24T21:07:43.772Z,0.25
2023-03-24T21:10:12.588Z,0.43
2023-03-24T21:12:52.765Z,0.20
2023-03-24T21:15:25.002Z,0.10
2023-03-24T21:17:53.808Z,0.53
2023-03-24T21:20:22.535Z,0.20
2023-03-24T21:22:55.066Z,0.10
2023-03-24T21:25:25.720Z,0.35
2023-03-24T21:27:56.079Z,0.50
2023-03-24T21:30:26.153Z,0.30
2023-03-24T21:32:56.653Z,0.10
2023-03-24T21:35:26.032Z,0.30
2023-03-24T21:37:54.469Z,0.40
2023-03-24T21:40:25.451Z,0.35
2023-03-24T21:42:55.841Z,0.30
2023-03-24T21:45:24.935Z,0.30
2023-03-24T21:47:55.880Z,0.30
2023-03-24T21:50:24.269Z,0.30
2023-03-24T21:52:54.823Z,0.20
2023-03-24T21:55:26.914Z,0.20
2023-03-24T21:57:57.730Z,0.40
2023-03-24T22:00:30.031Z,0.40
2023-03-24T22:02:58.481Z,0.40
2023-03-24T22:05:29.133Z,0.30
2023-03-24T22:07:57.442Z,0.20
2023-03-24T22:10:30.005Z,0.25
2023-03-24T22:12:59.635Z,0.30
2023-03-24T22:15:29.413Z,0.30
2023-03-24T22:17:59.161Z,0.30
2023-03-24T22:20:28.238Z,0.50
2023-03-24T22:22:56.608Z,0.10
2023-03-24T22:25:25.335Z,0.50
2023-03-24T22:27:56.053Z,0.22
2023-03-24T22:30:25.767Z,0.17
2023-03-24T22:32:54.119Z,0.20
2023-03-24T22:35:23.350Z,0.22
2023-03-24T22:37:51.725Z,0.30
2023-03-24T22:40:20.181Z,0.20
2023-03-24T22:42:48.414Z,0.40
2023-03-24T22:45:16.936Z,0.30
2023-03-24T22:47:46.641Z,0.30
2023-03-24T22:50:14.981Z,0.20
2023-03-24T22:52:43.204Z,0.20
2023-03-24T22:55:11.735Z,0.22
2023-03-24T22:57:40.046Z,0.35
2023-03-24T23:00:11.037Z,0.15
2023-03-24T23:02:39.639Z,0.30
2023-03-24T23:05:10.388Z,0.30
2023-03-24T23:07:39.310Z,0.35
2023-03-24T23:10:08.704Z,0.40
2023-03-24T23:12:37.669Z,0.30
2023-03-24T23:15:07.781Z,0.40
2023-03-24T23:17:36.123Z,0.13
2023-03-24T23:20:07.547Z,0.38
2023-03-24T23:22:38.323Z,0.25
2023-03-24T23:25:08.129Z,0.10
2023-03-24T23:27:37.990Z,0.40
2023-03-24T23:30:10.002Z,0.32
2023-03-24T23:32:39.732Z,0.10
2023-03-24T23:35:10.524Z,0.35
2023-03-24T23:37:40.539Z,0.38
2023-03-24T23:40:14.966Z,0.50
2023-03-24T23:42:47.298Z,0.50
2023-03-24T23:45:18.694Z,0.20
2023-03-24T23:47:50.311Z,0.45
2023-03-24T23:50:19.640Z,0.33
2023-03-24T23:52:49.369Z,0.40
2023-03-24T23:55:20.987Z,0.38
2023-03-24T23:57:49.635Z,0.50
